Terminal Aerodrome Forecast
Issued by NWS

Home | Current Version | Previous Version | Text Only | Print | Product List | Glossary On
Versions: 1 2 3 4 5 6 7 8 9 10 11 12 13 14 15 16 17 18 19 20 21 22 23 24 25 26 27 28
000
FTUS41 KOKX 211554 AAB
TAFTEB
TAF AMD
KTEB 211554Z 2116/2212 27008KT P6SM SCT250
     FM211800 22010G16KT P6SM FEW050 SCT250
      TEMPO 2120/2123 18007KT
     FM220000 20006KT P6SM SCT150 BKN250
     FM220900 21003KT 5SM BR FEW010 SCT150 BKN250=

USA.gov is the U.S. government's official web portal to all federal, state and local government web resources and services.